Time;durP1;ratioP1;P1;durP2;ratioP2;P2;SDS_P1;SDS_P2;PMS_P1;PMS_P2;Temp;Humidity;BMP_temperature;BMP_pressure;BME280_temperature;BME280_humidity;BME280_pressure;Samples;Min_cycle;Max_cycle;Signal;HPM_P1;HPM_P2
2021/10/31 00:02:14;;;;;;;2.65;1.25;;;;;;;21.19;50.60;100537.19;5073155;28;20028;-61
2021/10/31 00:04:40;;;;;;;3.58;1.30;;;;;;;21.18;50.60;100538.19;5072665;28;20027;-60
2021/10/31 00:07:06;;;;;;;2.97;1.17;;;;;;;21.16;50.64;100540.16;5071866;28;20032;-60
2021/10/31 00:09:31;;;;;;;3.25;1.40;;;;;;;21.16;50.50;100547.28;5072425;28;20419;-61
2021/10/31 00:12:00;;;;;;;3.35;1.40;;;;;;;21.16;50.51;100556.06;5072845;28;20392;-60
2021/10/31 00:14:25;;;;;;;4.18;1.38;;;;;;;21.16;50.42;100550.75;5073365;28;20103;-61
2021/10/31 00:16:51;;;;;;;3.30;1.35;;;;;;;21.14;50.48;100554.53;5072297;28;20135;-61
2021/10/31 00:19:17;;;;;;;2.85;1.40;;;;;;;21.13;50.41;100553.69;5072783;28;20032;-60
2021/10/31 00:21:42;;;;;;;3.17;1.40;;;;;;;21.13;50.38;100544.94;5073057;28;20416;-61
2021/10/31 00:24:07;;;;;;;2.87;1.50;;;;;;;21.12;50.29;100545.91;5071890;28;20029;-60
2021/10/31 00:26:33;;;;;;;2.85;1.20;;;;;;;21.09;50.42;100544.38;5073190;28;20296;-61
2021/10/31 00:28:58;;;;;;;2.33;1.17;;;;;;;21.10;50.56;100547.88;5072736;28;20507;-61
2021/10/31 00:31:24;;;;;;;3.15;1.38;;;;;;;21.11;50.31;100558.34;5072032;28;20020;-61
2021/10/31 00:33:49;;;;;;;3.22;1.58;;;;;;;21.09;50.32;100557.63;5072683;28;20032;-60
2021/10/31 00:36:15;;;;;;;4.03;1.40;;;;;;;21.08;50.05;100557.78;5072344;28;20029;-60
2021/10/31 00:38:40;;;;;;;2.77;1.30;;;;;;;21.06;50.47;100560.59;5071829;28;20024;-59
2021/10/31 00:41:06;;;;;;;2.80;1.20;;;;;;;21.04;50.09;100554.59;5072339;28;20285;-61
2021/10/31 00:43:34;;;;;;;2.85;1.38;;;;;;;21.03;50.40;100558.25;5072716;28;20274;-60
2021/10/31 00:45:59;;;;;;;2.28;1.10;;;;;;;21.03;50.28;100560.91;5071346;28;20074;-61
2021/10/31 00:48:24;;;;;;;3.25;1.40;;;;;;;21.02;50.24;100554.75;5072514;28;20032;-60
2021/10/31 00:50:51;;;;;;;2.72;1.23;;;;;;;21.00;50.19;100556.72;5072499;28;20486;-61
2021/10/31 00:53:17;;;;;;;2.88;1.50;;;;;;;20.99;50.22;100564.81;5071013;28;20522;-61
2021/10/31 00:55:43;;;;;;;3.67;1.30;;;;;;;20.96;50.26;100558.00;5072165;28;20406;-60
2021/10/31 00:58:12;;;;;;;4.55;1.20;;;;;;;20.97;50.10;100554.38;5071998;28;20045;-60
2021/10/31 01:00:38;;;;;;;2.65;1.33;;;;;;;20.97;50.06;100550.91;5071570;28;20059;-60
2021/10/31 01:03:03;;;;;;;2.78;1.23;;;;;;;20.95;50.01;100561.66;5071463;28;20162;-60
2021/10/31 01:05:34;;;;;;;2.50;1.00;;;;;;;20.94;50.14;100561.81;5072060;28;20036;-60
2021/10/31 01:08:15;;;;;;;3.17;1.20;;;;;;;20.92;50.17;100558.44;5071028;28;20434;-60
2021/10/31 01:11:14;;;;;;;3.28;1.42;;;;;;;20.91;50.21;100568.22;5072230;28;20483;-60
2021/10/31 01:13:53;;;;;;;3.08;1.30;;;;;;;20.91;49.97;100568.22;5071442;28;20049;-60
2021/10/31 01:16:46;;;;;;;2.40;1.17;;;;;;;20.88;49.96;100571.16;5071780;28;20025;-60
2021/10/31 01:19:38;;;;;;;2.85;1.20;;;;;;;20.88;50.06;100573.00;5063356;28;20098;-60
2021/10/31 01:22:25;;;;;;;2.42;1.10;;;;;;;20.88;49.93;100575.63;5071049;28;20032;-62
2021/10/31 01:25:10;;;;;;;1.92;1.10;;;;;;;20.84;50.01;100568.00;5072227;28;20029;-60
2021/10/31 01:27:51;;;;;;;2.78;1.25;;;;;;;20.83;50.09;100574.25;5071454;28;20043;-60
2021/10/31 01:30:33;;;;;;;3.00;1.40;;;;;;;20.81;49.81;100575.41;5071773;28;20129;-61
2021/10/31 01:33:08;;;;;;;2.22;1.10;;;;;;;20.80;49.89;100582.50;5071940;28;20035;-61
2021/10/31 01:35:55;;;;;;;3.35;1.38;;;;;;;20.80;49.81;100576.38;5071116;28;20021;-61
2021/10/31 01:38:49;;;;;;;2.80;1.35;;;;;;;20.76;49.95;100581.16;5071693;28;20048;-61
2021/10/31 01:41:26;;;;;;;3.15;1.40;;;;;;;20.76;49.90;100577.66;5070787;28;20469;-60
2021/10/31 01:44:02;;;;;;;3.05;1.25;;;;;;;20.75;49.71;100586.59;5072018;28;20094;-61
2021/10/31 01:46:40;;;;;;;2.70;1.27;;;;;;;20.72;49.89;100579.75;5071811;28;20033;-61
2021/10/31 01:49:24;;;;;;;2.47;1.20;;;;;;;20.71;49.77;100583.41;5070904;28;20402;-61
2021/10/31 01:51:57;;;;;;;2.47;1.23;;;;;;;20.70;49.94;100583.56;5071990;28;20085;-60
2021/10/31 01:54:29;;;;;;;3.10;1.35;;;;;;;20.68;50.00;100582.84;5071575;28;20048;-60
2021/10/31 01:56:59;;;;;;;2.67;1.27;;;;;;;20.66;49.85;100588.28;5071055;28;20123;-60
2021/10/31 01:59:33;;;;;;;7.65;1.63;;;;;;;20.65;49.91;100587.47;5071608;28;20036;-60
2021/10/31 02:02:03;;;;;;;2.28;1.10;;;;;;;20.63;49.98;100584.13;5071049;28;20025;-61
2021/10/31 02:04:32;;;;;;;2.13;1.10;;;;;;;20.62;49.75;100577.16;5071364;28;20055;-61
2021/10/31 02:06:59;;;;;;;3.67;1.33;;;;;;;20.60;49.70;100587.06;5071298;28;20035;-60
2021/10/31 02:09:28;;;;;;;3.22;1.38;;;;;;;20.60;49.75;100583.56;5070969;28;20070;-60
2021/10/31 02:11:55;;;;;;;3.17;1.08;;;;;;;20.59;49.80;100592.50;5071339;28;20442;-60
2021/10/31 02:14:22;;;;;;;3.13;1.50;;;;;;;20.58;49.69;100581.06;5071234;28;20031;-60
2021/10/31 02:16:48;;;;;;;3.20;1.30;;;;;;;20.57;49.59;100586.50;5070830;28;20031;-60
2021/10/31 02:19:20;;;;;;;2.60;1.20;;;;;;;20.57;49.89;100592.66;5070854;28;20108;-60
2021/10/31 02:21:47;;;;;;;3.17;1.25;;;;;;;20.56;49.71;100584.84;5071573;28;20078;-60
2021/10/31 02:24:12;;;;;;;2.92;1.30;;;;;;;20.54;49.80;100584.16;5070162;28;20472;-60
2021/10/31 02:26:38;;;;;;;3.92;1.40;;;;;;;20.52;49.65;100586.97;5071411;28;20107;-60
2021/10/31 02:29:07;;;;;;;3.45;1.48;;;;;;;20.51;49.56;100590.56;5071186;28;20039;-61
2021/10/31 02:31:37;;;;;;;3.72;1.50;;;;;;;20.48;49.77;100581.09;5074295;28;20435;-60
2021/10/31 02:34:06;;;;;;;3.38;1.35;;;;;;;20.48;49.85;100585.56;5074982;28;20021;-61
2021/10/31 02:36:32;;;;;;;3.85;1.40;;;;;;;20.48;49.65;100590.88;5075186;28;20025;-61
2021/10/31 02:39:01;;;;;;;3.15;1.30;;;;;;;20.47;49.62;100582.09;5074094;28;20040;-61
2021/10/31 02:41:27;;;;;;;3.00;1.50;;;;;;;20.46;49.72;100585.72;5075044;28;20093;-60
2021/10/31 02:43:52;;;;;;;2.92;1.30;;;;;;;20.44;49.48;100574.44;5075138;28;20028;-60
2021/10/31 02:46:18;;;;;;;2.70;1.25;;;;;;;20.44;49.69;100577.09;5073932;28;20020;-60
2021/10/31 02:48:43;;;;;;;3.72;1.40;;;;;;;20.43;49.63;100577.25;5075035;28;20460;-60
2021/10/31 02:51:31;;;;;;;3.10;1.33;;;;;;;20.42;49.64;100579.03;5074784;28;20024;-61
2021/10/31 02:54:04;;;;;;;2.80;1.38;;;;;;;20.42;49.63;100573.75;5074596;28;20400;-60
2021/10/31 02:56:42;;;;;;;2.97;1.40;;;;;;;20.41;49.73;100574.75;5075350;28;20039;-61
2021/10/31 02:59:23;;;;;;;2.85;1.38;;;;;;;20.42;49.52;100576.38;5074247;28;20036;-61
2021/10/31 03:01:53;;;;;;;2.88;1.40;;;;;;;20.43;49.46;100571.94;5075301;28;20025;-61
2021/10/31 03:04:19;;;;;;;2.67;1.30;;;;;;;20.43;49.52;100567.47;5074706;28;20395;-60
2021/10/31 03:06:45;;;;;;;4.65;2.15;;;;;;;20.41;49.57;100565.94;5074483;28;20046;-60
2021/10/31 03:09:16;;;;;;;4.03;1.70;;;;;;;20.39;49.52;100568.75;5075033;28;20488;-61
2021/10/31 03:11:41;;;;;;;4.75;1.42;;;;;;;20.39;49.47;100563.44;5075369;28;20075;-60
2021/10/31 03:14:07;;;;;;;2.67;1.30;;;;;;;20.38;49.47;100566.28;5073910;28;20071;-60
2021/10/31 03:16:35;;;;;;;3.22;1.60;;;;;;;20.38;49.34;100558.34;5074952;28;20273;-61
2021/10/31 03:19:01;;;;;;;3.90;1.50;;;;;;;20.37;49.42;100557.47;5074402;28;20116;-60
2021/10/31 03:21:26;;;;;;;3.80;1.50;;;;;;;20.36;49.41;100555.81;5074192;28;20111;-60
2021/10/31 03:23:51;;;;;;;3.60;1.70;;;;;;;20.36;49.58;100552.31;5075003;28;20032;-61
2021/10/31 03:26:16;;;;;;;4.50;1.33;;;;;;;20.35;49.68;100559.44;5074378;28;20079;-59
2021/10/31 03:28:42;;;;;;;2.90;1.43;;;;;;;20.34;49.19;100563.06;5074154;28;20265;-61
2021/10/31 03:31:10;;;;;;;3.93;1.20;;;;;;;20.33;49.51;100556.13;5074329;28;20831;-60
2021/10/31 03:33:35;;;;;;;2.67;1.35;;;;;;;20.31;49.30;100558.06;5073597;28;20377;-61
2021/10/31 03:36:00;;;;;;;3.60;1.60;;;;;;;20.30;49.27;100557.22;5074200;28;20104;-61
2021/10/31 03:38:26;;;;;;;3.03;1.60;;;;;;;20.29;49.27;100550.25;5074367;28;20037;-60
2021/10/31 03:40:51;;;;;;;2.95;1.50;;;;;;;20.30;49.18;100556.41;5073451;28;20285;-60
2021/10/31 03:43:19;;;;;;;3.08;1.30;;;;;;;20.28;49.28;100550.41;5072721;28;20472;-60
2021/10/31 03:45:44;;;;;;;3.67;1.50;;;;;;;20.27;49.31;100551.41;5074337;28;20021;-61
2021/10/31 03:48:10;;;;;;;4.10;1.52;;;;;;;20.26;49.34;100544.44;5072753;28;20081;-60
2021/10/31 03:50:35;;;;;;;4.20;1.60;;;;;;;20.26;49.18;100541.78;5074267;28;20459;-60
2021/10/31 03:53:00;;;;;;;2.85;1.25;;;;;;;20.25;49.36;100540.97;5073622;28;20371;-61
2021/10/31 03:55:26;;;;;;;3.28;1.33;;;;;;;20.24;49.49;100538.47;5073028;28;20024;-60
2021/10/31 03:57:51;;;;;;;2.58;1.23;;;;;;;20.22;49.34;100537.75;5073939;28;20036;-61
2021/10/31 04:00:17;;;;;;;3.25;1.40;;;;;;;20.23;49.22;100534.16;5073336;28;20040;-60
2021/10/31 04:02:43;;;;;;;3.40;1.85;;;;;;;20.22;49.41;100529.81;5072903;28;20070;-60
2021/10/31 04:05:11;;;;;;;2.70;1.40;;;;;;;20.21;49.42;100534.28;5073634;28;20368;-60
2021/10/31 04:07:36;;;;;;;3.78;1.48;;;;;;;20.21;49.58;100541.41;5073576;28;20042;-60
2021/10/31 04:10:03;;;;;;;4.18;1.52;;;;;;;20.20;49.35;100530.00;5072567;28;20032;-60
2021/10/31 04:12:29;;;;;;;3.80;1.50;;;;;;;20.19;49.27;100525.66;5073676;28;20037;-61
2021/10/31 04:14:54;;;;;;;3.97;1.57;;;;;;;20.19;49.53;100525.66;5073574;28;20166;-60
2021/10/31 04:17:19;;;;;;;3.27;1.53;;;;;;;20.20;49.38;100527.34;5072268;28;20297;-60
2021/10/31 04:19:47;;;;;;;2.70;1.40;;;;;;;20.19;49.47;100530.13;5073735;28;20119;-60
2021/10/31 04:22:13;;;;;;;5.18;1.70;;;;;;;20.19;49.35;100527.50;5072656;28;20149;-60
2021/10/31 04:24:38;;;;;;;2.80;1.50;;;;;;;20.17;49.17;100524.13;5072780;28;20021;-60
2021/10/31 04:27:04;;;;;;;3.22;1.30;;;;;;;20.17;49.36;100529.44;5073068;28;20028;-60
2021/10/31 04:29:30;;;;;;;3.35;1.60;;;;;;;20.17;49.44;100532.94;5073261;28;20021;-60
2021/10/31 04:31:58;;;;;;;2.60;1.33;;;;;;;20.15;49.23;100526.94;5072833;28;20037;-61
2021/10/31 04:34:24;;;;;;;3.63;1.45;;;;;;;20.15;49.28;100524.28;5073369;28;20012;-61
2021/10/31 04:36:50;;;;;;;3.33;1.50;;;;;;;20.13;49.39;100507.72;5072375;28;20035;-60
2021/10/31 04:39:16;;;;;;;3.38;1.58;;;;;;;20.14;49.51;100522.63;5072704;28;20484;-60
2021/10/31 04:41:46;;;;;;;2.40;1.30;;;;;;;20.13;49.23;100518.31;5073118;28;20110;-60
2021/10/31 04:44:12;;;;;;;4.53;1.42;;;;;;;20.14;49.35;100513.84;5071918;28;20032;-60
2021/10/31 04:46:40;;;;;;;2.33;1.15;;;;;;;20.14;49.24;100516.50;5072919;28;20028;-60
2021/10/31 04:49:05;;;;;;;3.45;1.55;;;;;;;20.14;49.21;100520.00;5072740;28;20376;-60
2021/10/31 04:51:31;;;;;;;2.85;1.20;;;;;;;20.14;49.25;100516.50;5072033;28;20025;-60
2021/10/31 04:53:56;;;;;;;2.95;1.30;;;;;;;20.13;49.23;100514.84;5071939;28;20108;-60
2021/10/31 04:56:24;;;;;;;2.70;1.27;;;;;;;20.11;49.40;100513.16;5072586;28;20032;-60
2021/10/31 04:58:50;;;;;;;2.72;1.40;;;;;;;20.11;49.40;100510.53;5071939;28;20032;-60
2021/10/31 05:01:16;;;;;;;2.70;1.40;;;;;;;20.13;49.11;100506.91;5072393;28;20032;-60
2021/10/31 05:03:41;;;;;;;3.13;1.40;;;;;;;20.13;49.09;100505.09;5072543;28;20037;-59
2021/10/31 05:06:07;;;;;;;3.97;1.52;;;;;;;20.12;49.17;100492.81;5071447;28;20048;-59
2021/10/31 05:08:32;;;;;;;2.58;1.30;;;;;;;20.11;49.24;100493.81;5072692;28;20395;-61
2021/10/31 05:10:57;;;;;;;2.90;1.30;;;;;;;20.10;49.12;100489.50;5072310;28;20448;-61
2021/10/31 05:13:22;;;;;;;3.40;1.70;;;;;;;20.10;48.99;100497.44;5071850;28;20281;-61
2021/10/31 05:15:48;;;;;;;2.72;1.40;;;;;;;20.10;48.99;100486.84;5072383;28;20293;-61
2021/10/31 05:18:13;;;;;;;3.22;1.40;;;;;;;20.09;49.24;100488.69;5072039;28;20136;-60
2021/10/31 05:20:39;;;;;;;2.50;1.42;;;;;;;20.10;49.40;100492.16;5071782;28;20020;-61
2021/10/31 05:23:04;;;;;;;3.30;1.70;;;;;;;20.08;49.36;100489.66;5072169;28;20025;-60
2021/10/31 05:25:30;;;;;;;3.05;1.50;;;;;;;20.08;49.17;100494.94;5072445;28;20024;-60
2021/10/31 05:27:55;;;;;;;3.20;1.50;;;;;;;20.08;49.33;100494.13;5071185;28;20399;-59
2021/10/31 05:30:20;;;;;;;2.50;1.30;;;;;;;20.07;49.06;100484.50;5071980;28;20376;-60
2021/10/31 05:32:47;;;;;;;4.65;1.40;;;;;;;20.06;49.21;100488.13;5071934;28;20060;-60
2021/10/31 05:35:12;;;;;;;3.33;1.38;;;;;;;20.06;49.12;100480.19;5071373;28;20026;-60
2021/10/31 05:37:44;;;;;;;2.70;1.27;;;;;;;20.06;49.14;100485.47;5072180;28;20432;-61
2021/10/31 05:40:16;;;;;;;2.97;1.52;;;;;;;20.06;49.20;100481.03;5071293;28;20028;-60
2021/10/31 05:42:43;;;;;;;2.88;1.30;;;;;;;20.05;49.24;100466.13;5072087;28;20032;-61
2021/10/31 05:45:09;;;;;;;3.15;1.50;;;;;;;20.05;49.13;100458.19;5071679;28;20032;-60
2021/10/31 05:47:41;;;;;;;3.15;1.40;;;;;;;20.06;49.28;100464.31;5071445;28;20070;-60
2021/10/31 05:50:09;;;;;;;4.45;1.50;;;;;;;20.04;49.31;100459.16;5071651;28;20021;-61
2021/10/31 05:52:35;;;;;;;2.95;1.30;;;;;;;20.06;49.19;100465.16;5072031;28;20048;-61
2021/10/31 05:55:01;;;;;;;2.22;1.25;;;;;;;20.05;49.11;100465.31;5071032;28;20020;-61
2021/10/31 05:57:27;;;;;;;3.10;1.40;;;;;;;20.05;49.29;100460.03;5071852;28;20143;-61
2021/10/31 05:59:52;;;;;;;3.33;1.50;;;;;;;20.03;49.30;100452.22;5071834;28;20044;-60
2021/10/31 06:02:18;;;;;;;3.35;1.50;;;;;;;20.05;49.33;100457.38;5070814;28;20023;-60
2021/10/31 06:04:45;;;;;;;2.50;1.30;;;;;;;20.04;49.34;100453.03;5073468;28;20360;-60
2021/10/31 06:07:11;;;;;;;2.78;1.30;;;;;;;20.04;49.23;100443.28;5075869;28;20035;-61
2021/10/31 06:09:36;;;;;;;2.40;1.30;;;;;;;20.05;49.18;100436.22;5075233;28;20016;-63
2021/10/31 06:12:04;;;;;;;2.90;1.30;;;;;;;20.04;49.35;100434.53;5075403;28;20157;-61
2021/10/31 06:14:29;;;;;;;2.92;1.20;;;;;;;20.03;49.10;100439.00;5076115;28;20040;-61
2021/10/31 06:16:55;;;;;;;2.72;1.25;;;;;;;20.03;49.02;100425.78;5075008;28;20032;-61
2021/10/31 06:19:20;;;;;;;2.92;1.50;;;;;;;20.02;49.29;100431.22;5075544;28;20036;-60
2021/10/31 06:21:45;;;;;;;3.28;1.50;;;;;;;20.02;49.26;100423.28;5075920;28;20040;-60
2021/10/31 06:24:14;;;;;;;2.33;1.20;;;;;;;20.03;49.05;100424.94;5074570;28;20017;-61
2021/10/31 06:26:39;;;;;;;3.08;1.42;;;;;;;20.07;49.28;100416.53;5075657;28;20276;-60
2021/10/31 06:29:05;;;;;;;2.50;0.93;;;;;;;20.18;49.52;100412.06;5075266;28;20020;-60
2021/10/31 06:31:30;;;;;;;2.60;1.23;;;;;;;20.27;49.89;100412.00;5074875;28;20033;-60
2021/10/31 06:33:55;;;;;;;2.17;1.10;;;;;;;20.38;49.86;100413.59;5075228;28;20072;-60
2021/10/31 06:36:20;;;;;;;3.20;1.20;;;;;;;20.46;49.64;100405.72;5074372;28;20273;-60
2021/10/31 06:38:46;;;;;;;1.98;1.10;;;;;;;20.53;49.29;100402.47;5075258;28;20340;-60
2021/10/31 06:41:11;;;;;;;2.45;1.13;;;;;;;20.58;49.33;100400.22;5074933;28;20028;-61
2021/10/31 06:43:37;;;;;;;2.45;1.20;;;;;;;20.65;49.23;100396.84;5074800;28;20555;-60
2021/10/31 06:46:03;;;;;;;2.42;1.00;;;;;;;20.72;49.09;100391.75;5075198;28;20103;-60
2021/10/31 06:48:28;;;;;;;2.10;1.00;;;;;;;20.78;48.79;100385.84;5075581;28;20120;-62
2021/10/31 06:50:55;;;;;;;2.55;1.10;;;;;;;20.83;48.59;100391.50;5074618;28;20093;-60
2021/10/31 06:53:21;;;;;;;2.08;1.10;;;;;;;20.89;48.61;100394.56;5074896;28;20049;-60
2021/10/31 06:55:47;;;;;;;1.70;0.90;;;;;;;20.93;48.35;100395.91;5075155;28;20078;-60
2021/10/31 06:58:12;;;;;;;2.00;0.98;;;;;;;20.96;48.39;100385.81;5073928;28;20089;-60
2021/10/31 07:00:37;;;;;;;1.90;1.00;;;;;;;20.97;48.41;100387.50;5075083;28;20029;-60
2021/10/31 07:03:05;;;;;;;2.05;1.15;;;;;;;20.99;48.42;100377.56;5074682;28;20522;-59
2021/10/31 07:05:31;;;;;;;3.03;0.95;;;;;;;21.00;48.41;100367.81;5074265;28;20044;-60
2021/10/31 07:07:56;;;;;;;2.58;1.08;;;;;;;21.02;48.15;100366.66;5074434;28;20471;-60
2021/10/31 07:10:22;;;;;;;1.88;1.10;;;;;;;21.06;48.36;100377.81;5074664;28;20025;-60
2021/10/31 07:12:47;;;;;;;1.48;0.90;;;;;;;21.09;48.23;100376.63;5074245;28;20096;-60
2021/10/31 07:15:13;;;;;;;2.42;1.08;;;;;;;21.08;48.22;100372.31;5074000;28;20504;-61
2021/10/31 07:17:42;;;;;;;1.55;0.93;;;;;;;21.08;48.32;100372.31;5074811;28;20044;-60
2021/10/31 07:20:13;;;;;;;1.73;0.80;;;;;;;21.07;48.12;100366.19;5073580;28;20044;-60
2021/10/31 07:22:42;;;;;;;1.42;0.88;;;;;;;21.07;48.42;100355.59;5074670;28;20410;-60
2021/10/31 07:25:09;;;;;;;2.22;1.00;;;;;;;21.08;48.28;100357.28;5074368;28;20021;-60
2021/10/31 07:27:34;;;;;;;3.28;1.05;;;;;;;21.08;48.35;100357.28;5073550;28;20024;-61
2021/10/31 07:30:00;;;;;;;2.33;1.20;;;;;;;21.07;47.67;100346.81;5074153;28;20066;-61
2021/10/31 07:32:25;;;;;;;1.80;1.00;;;;;;;21.05;48.11;100351.47;5074320;28;20044;-60
2021/10/31 07:34:51;;;;;;;1.70;1.00;;;;;;;21.08;48.00;100359.06;5073771;28;20070;-59
2021/10/31 07:37:29;;;;;;;1.92;1.00;;;;;;;21.08;48.34;100359.94;5074007;28;20096;-60
2021/10/31 07:39:55;;;;;;;2.22;1.00;;;;;;;21.05;48.44;100359.41;5073683;28;20385;-59
2021/10/31 07:42:27;;;;;;;4.55;1.05;;;;;;;21.05;48.52;100357.59;5073987;28;20111;-64
2021/10/31 07:44:55;;;;;;;2.08;1.00;;;;;;;21.07;48.63;100350.31;5074351;28;20055;-63
2021/10/31 07:47:21;;;;;;;1.95;0.93;;;;;;;21.07;48.63;100357.44;5073458;28;20040;-62
2021/10/31 07:49:46;;;;;;;3.33;1.10;;;;;;;21.07;48.78;100362.72;5074100;28;20093;-60
2021/10/31 07:52:11;;;;;;;2.10;1.05;;;;;;;21.05;48.98;100356.75;5073645;28;20085;-61
2021/10/31 07:54:37;;;;;;;2.70;0.90;;;;;;;21.02;49.07;100355.25;5073185;28;20025;-61
2021/10/31 07:57:02;;;;;;;2.40;1.10;;;;;;;21.04;48.97;100368.34;5073743;28;20101;-62
2021/10/31 07:59:28;;;;;;;1.70;0.88;;;;;;;21.13;48.89;100368.22;5074000;28;20273;-61
2021/10/31 08:01:53;;;;;;;2.05;0.90;;;;;;;21.21;48.70;100356.84;5073043;28;20063;-61
2021/10/31 08:04:19;;;;;;;4.43;1.10;;;;;;;21.29;48.41;100348.94;5073427;28;20039;-60
2021/10/31 08:06:48;;;;;;;1.58;0.70;;;;;;;21.37;48.33;100350.81;5073698;28;20500;-61
2021/10/31 08:09:13;;;;;;;2.35;0.88;;;;;;;21.41;48.14;100362.75;5072800;28;20026;-60
2021/10/31 08:11:42;;;;;;;2.28;1.05;;;;;;;21.44;48.29;100372.22;5073892;28;20114;-64
2021/10/31 08:14:10;;;;;;;5.10;1.13;;;;;;;21.35;48.34;100366.88;5074950;28;20435;-63
2021/10/31 08:17:00;;;;;;;2.53;1.20;;;;;;;21.29;48.61;100351.59;5078985;28;20145;-63
2021/10/31 08:19:48;;;;;;;2.45;1.13;;;;;;;21.32;48.67;100348.63;5083351;28;20040;-63
2021/10/31 08:22:38;;;;;;;1.83;1.00;;;;;;;21.41;48.51;100341.53;5071230;28;20435;-64
2021/10/31 08:25:04;;;;;;;2.75;1.10;;;;;;;21.49;48.27;100332.81;5076150;28;20499;-62
2021/10/31 08:27:30;;;;;;;3.70;1.13;;;;;;;21.57;48.13;100330.22;5073198;28;20028;-61
2021/10/31 08:29:55;;;;;;;4.53;1.20;;;;;;;21.65;48.07;100306.41;5074867;28;20025;-61
2021/10/31 08:32:23;;;;;;;5.55;1.20;;;;;;;21.73;48.14;100302.94;5076868;28;20048;-62
2021/10/31 08:34:48;;;;;;;4.85;1.27;;;;;;;21.81;48.33;100304.75;5076809;28;20081;-61
2021/10/31 08:37:17;;;;;;;3.03;1.17;;;;;;;21.84;48.29;100294.69;5075915;28;20092;-63
2021/10/31 08:39:48;;;;;;;2.85;1.33;;;;;;;21.89;48.40;100291.53;5075553;28;20116;-60
2021/10/31 08:42:14;;;;;;;2.50;1.20;;;;;;;21.88;48.54;100285.38;5074613;28;20349;-61
2021/10/31 08:44:40;;;;;;;4.03;1.40;;;;;;;21.87;48.66;100290.84;5076096;28;20039;-63
2021/10/31 08:47:06;;;;;;;4.47;1.35;;;;;;;21.85;48.62;100287.53;5076810;28;20024;-62
2021/10/31 08:49:32;;;;;;;2.92;1.30;;;;;;;21.88;48.20;100284.56;5073822;28;20507;-61
2021/10/31 08:51:58;;;;;;;3.72;1.33;;;;;;;21.89;48.17;100275.63;5072854;28;20021;-64
2021/10/31 08:54:23;;;;;;;4.50;1.40;;;;;;;21.90;48.17;100286.06;5074129;28;20047;-64
2021/10/31 08:56:48;;;;;;;3.90;1.58;;;;;;;21.89;48.44;100284.41;5074922;28;20028;-61
2021/10/31 08:59:26;;;;;;;4.68;1.20;;;;;;;21.90;48.38;100286.06;5074015;28;20460;-61
2021/10/31 09:01:51;;;;;;;3.60;1.45;;;;;;;21.93;48.38;100279.59;5074638;28;20028;-62
2021/10/31 09:04:17;;;;;;;3.42;1.45;;;;;;;21.93;48.37;100276.94;5072761;28;20124;-62
2021/10/31 09:06:42;;;;;;;3.35;1.30;;;;;;;21.93;48.39;100275.09;5071883;28;20037;-61
2021/10/31 09:09:07;;;;;;;3.70;1.20;;;;;;;21.91;48.17;100258.53;5072699;28;20072;-63
2021/10/31 09:11:35;;;;;;;2.58;1.27;;;;;;;21.90;48.42;100246.28;5072611;28;20280;-64
2021/10/31 09:14:00;;;;;;;3.50;1.40;;;;;;;21.89;48.51;100241.97;5073657;28;20147;-62
2021/10/31 09:16:26;;;;;;;4.03;1.30;;;;;;;21.90;48.80;100238.31;5075468;28;20066;-63
2021/10/31 09:19:01;;;;;;;3.97;1.10;;;;;;;21.91;48.46;100237.31;5074661;28;20289;-63
2021/10/31 09:21:28;;;;;;;4.47;1.30;;;;;;;21.92;48.36;100231.03;5073574;28;20033;-63
2021/10/31 09:23:54;;;;;;;3.63;1.25;;;;;;;21.94;48.62;100217.59;5073153;28;20036;-64
2021/10/31 09:26:19;;;;;;;4.32;1.45;;;;;;;21.92;47.57;100225.72;5072001;28;20025;-60
2021/10/31 09:28:46;;;;;;;7.78;1.38;;;;;;;21.82;45.21;100221.56;5072948;28;20031;-63
2021/10/31 09:31:12;;;;;;;4.60;1.30;;;;;;;21.64;46.84;100219.88;5072634;28;20375;-62
2021/10/31 09:33:39;;;;;;;4.55;1.50;;;;;;;21.59;47.67;100216.88;5071850;28;20392;-64
2021/10/31 09:36:04;;;;;;;6.72;2.10;;;;;;;21.57;48.22;100208.28;5073393;28;20492;-61
2021/10/31 09:38:31;;;;;;;7.68;2.20;;;;;;;21.60;48.26;100212.41;5072941;28;20060;-62
2021/10/31 09:40:57;;;;;;;4.70;1.95;;;;;;;21.63;47.89;100206.78;5071630;28;20371;-62
2021/10/31 09:43:26;;;;;;;7.60;2.00;;;;;;;21.65;47.96;100200.31;5073371;28;20023;-64
2021/10/31 09:45:51;;;;;;;6.18;1.88;;;;;;;21.70;47.71;100205.97;5073676;28;20020;-63
2021/10/31 09:48:17;;;;;;;6.68;2.17;;;;;;;21.77;48.12;100202.66;5072140;28;20036;-61
2021/10/31 09:50:49;;;;;;;7.60;2.17;;;;;;;21.79;47.89;100196.19;5072665;28;20067;-66
2021/10/31 09:53:20;;;;;;;6.10;2.08;;;;;;;21.81;47.96;100186.25;5071716;28;20044;-66
2021/10/31 09:55:47;;;;;;;5.95;1.90;;;;;;;21.81;48.05;100186.25;5072547;28;20179;-66
2021/10/31 09:58:25;;;;;;;7.97;2.15;;;;;;;21.80;48.08;100178.47;5071955;28;20047;-67
2021/10/31 10:00:54;;;;;;;6.00;2.00;;;;;;;21.79;48.07;100174.97;5071841;28;20107;-66
2021/10/31 10:03:40;;;;;;;5.00;1.85;;;;;;;21.78;48.51;100183.94;5071979;28;20056;-67
2021/10/31 10:06:18;;;;;;;5.07;1.70;;;;;;;21.79;48.33;100171.50;5072407;28;20074;-65
2021/10/31 10:09:02;;;;;;;5.20;1.60;;;;;;;21.80;48.27;100166.03;5071541;28;20040;-64
2021/10/31 10:11:30;;;;;;;5.68;1.35;;;;;;;21.84;48.35;100161.22;5072925;28;20028;-64
2021/10/31 10:14:23;;;;;;;4.78;1.60;;;;;;;21.88;48.36;100154.59;5073023;28;20032;-65
2021/10/31 10:16:53;;;;;;;5.00;1.80;;;;;;;21.91;48.17;100143.66;5072636;28;20083;-68
2021/10/31 10:19:27;;;;;;;6.15;2.10;;;;;;;21.92;48.42;100139.97;5071732;28;20028;-68
2021/10/31 10:21:54;;;;;;;4.60;1.60;;;;;;;21.92;48.22;100140.81;5071324;28;20029;-65
2021/10/31 10:24:22;;;;;;;8.70;2.25;;;;;;;21.95;48.43;100130.88;5072578;28;20024;-65
2021/10/31 10:26:48;;;;;;;5.55;1.52;;;;;;;21.97;48.08;100129.72;5075222;28;20024;-64
2021/10/31 10:29:15;;;;;;;4.28;1.60;;;;;;;22.00;48.14;100125.88;5072908;28;20028;-65
2021/10/31 10:31:42;;;;;;;4.38;1.40;;;;;;;22.02;48.03;100122.09;5073018;28;20085;-64
2021/10/31 10:34:11;;;;;;;3.67;1.40;;;;;;;22.07;47.91;100110.97;5072111;28;20033;-66
2021/10/31 10:36:42;;;;;;;6.40;1.60;;;;;;;22.12;47.79;100100.66;5071526;28;20123;-63
2021/10/31 10:39:17;;;;;;;6.80;1.80;;;;;;;22.13;47.45;100099.69;5072062;28;20475;-64
2021/10/31 10:41:48;;;;;;;4.70;1.65;;;;;;;22.15;47.56;100100.34;5072218;28;20028;-66
2021/10/31 10:44:20;;;;;;;4.47;1.33;;;;;;;22.15;47.53;100099.50;5070869;28;20048;-63
2021/10/31 10:46:47;;;;;;;3.90;1.33;;;;;;;22.11;47.48;100099.00;5071959;28;20380;-64
2021/10/31 10:49:17;;;;;;;4.88;1.35;;;;;;;22.09;47.83;100082.44;5070726;28;20055;-67
2021/10/31 10:51:45;;;;;;;4.60;1.80;;;;;;;22.04;47.89;100072.31;5073960;28;20033;-65
2021/10/31 10:54:19;;;;;;;4.35;1.55;;;;;;;22.05;47.82;100067.88;5075316;28;20051;-64
2021/10/31 10:57:08;;;;;;;5.47;1.30;;;;;;;22.05;48.05;100060.72;5076765;28;20033;-64
2021/10/31 10:59:35;;;;;;;3.63;1.30;;;;;;;22.07;48.01;100057.91;5076989;28;20021;-66
2021/10/31 11:02:27;;;;;;;4.45;1.40;;;;;;;22.06;47.89;100049.13;5076742;28;20020;-64
2021/10/31 11:04:59;;;;;;;5.18;1.67;;;;;;;22.08;48.03;100035.69;5075632;28;20036;-64
2021/10/31 11:07:48;;;;;;;3.63;1.40;;;;;;;22.08;48.11;100030.38;5075348;28;20040;-62
2021/10/31 11:10:26;;;;;;;4.18;1.35;;;;;;;22.10;47.96;100031.84;5075066;28;20379;-62
2021/10/31 11:12:54;;;;;;;4.32;1.50;;;;;;;22.09;47.92;100008.97;5074374;28;20472;-61
2021/10/31 11:15:38;;;;;;;4.25;1.48;;;;;;;22.14;48.11;99999.66;5074942;28;20414;-62
2021/10/31 11:18:07;;;;;;;4.30;1.67;;;;;;;22.16;47.74;100001.16;5074219;28;20033;-63
2021/10/31 11:20:36;;;;;;;4.07;1.40;;;;;;;22.17;47.72;100000.16;5074995;28;20467;-64
2021/10/31 11:23:04;;;;;;;4.13;1.20;;;;;;;22.16;47.79;99987.03;5074785;28;20107;-63
2021/10/31 11:25:32;;;;;;;3.92;1.20;;;;;;;22.13;47.60;99987.38;5074132;28;20037;-65
2021/10/31 11:28:00;;;;;;;2.83;1.15;;;;;;;22.09;47.81;99978.94;5074581;28;20020;-64
2021/10/31 11:30:30;;;;;;;2.75;1.08;;;;;;;22.05;47.58;99978.47;5074646;28;20031;-64
2021/10/31 11:32:56;;;;;;;2.55;0.95;;;;;;;22.03;47.90;99976.97;5073814;28;20123;-66